createdAt,value
2023-04-12T00:01:28.307Z,2.20
2023-04-12T00:06:34.812Z,2.50
2023-04-12T00:11:39.107Z,2.28
2023-04-12T00:16:43.831Z,2.33
2023-04-12T00:21:51.115Z,2.10
2023-04-12T00:26:59.687Z,2.05
2023-04-12T00:32:04.376Z,2.05
2023-04-12T00:37:13.213Z,2.25
2023-04-12T00:42:17.123Z,2.60
2023-04-12T00:47:25.252Z,2.30
2023-04-12T00:52:31.285Z,2.08
2023-04-12T00:57:37.245Z,2.00
2023-04-12T01:02:44.869Z,2.40
2023-04-12T01:07:56.910Z,2.15
2023-04-12T01:13:11.651Z,2.25
2023-04-12T01:18:19.467Z,2.13
2023-04-12T01:23:44.213Z,1.98
2023-04-12T01:28:53.796Z,2.20
2023-04-12T01:33:59.961Z,2.30
2023-04-12T01:39:05.359Z,2.58
2023-04-12T01:44:22.961Z,1.88
2023-04-12T01:49:31.140Z,2.22
2023-04-12T01:54:41.160Z,2.20
2023-04-12T01:59:47.819Z,2.28
2023-04-12T02:04:54.091Z,1.70
2023-04-12T02:09:57.855Z,2.17
2023-04-12T02:15:03.698Z,1.83
2023-04-12T02:20:08.888Z,2.40
2023-04-12T02:25:12.632Z,2.63
2023-04-12T02:30:19.557Z,2.33
2023-04-12T02:35:23.348Z,2.15
2023-04-12T02:40:27.160Z,2.25
2023-04-12T02:45:32.435Z,2.30
2023-04-12T02:50:38.205Z,2.63
2023-04-12T02:55:41.801Z,2.30
2023-04-12T03:00:47.198Z,2.20
2023-04-12T03:05:50.836Z,2.30
2023-04-12T03:10:54.445Z,2.30
2023-04-12T03:16:01.185Z,2.50
2023-04-12T03:21:05.890Z,2.58
2023-04-12T03:26:10.709Z,2.58
2023-04-12T03:31:16.033Z,2.63
2023-04-12T03:36:19.666Z,2.63
2023-04-12T03:41:23.700Z,2.58
2023-04-12T03:46:29.172Z,2.67
2023-04-12T03:51:33.034Z,2.60
2023-04-12T03:56:37.225Z,2.80
2023-04-12T04:01:43.140Z,2.75
2023-04-12T04:06:47.065Z,2.72
2023-04-12T04:11:50.659Z,3.28
2023-04-12T04:16:55.930Z,2.95
2023-04-12T04:21:59.741Z,2.90
2023-04-12T04:27:03.375Z,2.78
2023-04-12T04:32:10.004Z,2.88
2023-04-12T04:37:14.932Z,3.15
2023-04-12T04:42:18.796Z,3.08
2023-04-12T04:47:24.166Z,2.53
2023-04-12T04:52:27.946Z,2.80
2023-04-12T04:57:31.674Z,2.63
2023-04-12T05:02:38.941Z,2.60
2023-04-12T05:07:42.847Z,2.85
2023-04-12T05:12:46.650Z,2.72
2023-04-12T05:17:52.699Z,2.63
2023-04-12T05:22:56.465Z,2.80
2023-04-12T05:28:00.128Z,3.00
2023-04-12T05:33:05.479Z,3.08
2023-04-12T05:38:09.278Z,2.80
2023-04-12T05:43:13.022Z,2.72
2023-04-12T05:48:19.368Z,2.67
2023-04-12T05:53:23.404Z,2.60
2023-04-12T05:58:27.007Z,2.47
2023-04-12T06:03:32.581Z,2.63
2023-04-12T06:08:36.686Z,2.38
2023-04-12T06:13:40.768Z,2.20
2023-04-12T06:18:46.179Z,2.53
2023-04-12T06:23:49.984Z,2.70
2023-04-12T06:28:53.704Z,2.70
2023-04-12T06:33:59.855Z,2.20
2023-04-12T06:44:06.393Z,3.10
2023-04-12T06:49:11.769Z,2.40
2023-04-12T06:54:15.682Z,2.43
2023-04-12T06:59:19.294Z,2.45
2023-04-12T07:04:24.554Z,2.67
2023-04-12T07:09:28.224Z,2.40
2023-04-12T07:14:32.581Z,2.20
2023-04-12T07:19:37.935Z,2.50
2023-04-12T07:24:41.579Z,2.47
2023-04-12T07:29:45.244Z,2.13
2023-04-12T07:34:50.514Z,2.42
2023-04-12T07:39:54.122Z,2.40
2023-04-12T07:44:57.919Z,2.45
2023-04-12T07:50:03.463Z,2.78
2023-04-12T07:55:07.478Z,2.50
2023-04-12T08:00:12.039Z,2.50
2023-04-12T08:05:17.361Z,2.70
2023-04-12T08:10:20.975Z,2.50
2023-04-12T08:15:24.643Z,2.70
2023-04-12T08:20:29.943Z,2.40
2023-04-12T08:25:33.564Z,2.47
2023-04-12T08:30:37.196Z,2.50
2023-04-12T08:35:42.453Z,3.08
2023-04-12T08:40:46.830Z,2.88
2023-04-12T08:45:51.728Z,3.10
2023-04-12T08:50:57.816Z,2.67
2023-04-12T08:56:01.785Z,3.20
2023-04-12T09:01:08.263Z,3.33
2023-04-12T09:06:16.527Z,2.65
2023-04-12T09:11:24.909Z,3.50
2023-04-12T09:16:38.889Z,2.78
2023-04-12T09:21:53.947Z,2.97
2023-04-12T09:27:04.456Z,2.53
2023-04-12T09:32:10.286Z,2.80
2023-04-12T09:37:18.424Z,2.83
2023-04-12T09:42:33.302Z,3.15
2023-04-12T09:47:38.748Z,2.40
2023-04-12T09:52:44.317Z,3.15
2023-04-12T09:57:50.842Z,2.90
2023-04-12T10:02:55.893Z,2.63
2023-04-12T10:08:01.592Z,3.03
2023-04-12T10:13:06.372Z,2.60
2023-04-12T10:18:12.554Z,2.70
2023-04-12T10:23:18.858Z,2.70
2023-04-12T10:28:22.553Z,2.70
2023-04-12T10:33:28.595Z,2.35
2023-04-12T10:38:48.503Z,2.63
2023-04-12T10:43:52.558Z,2.47
2023-04-12T10:48:56.495Z,2.42
2023-04-12T10:54:29.157Z,2.60
2023-04-12T10:59:57.728Z,2.22
2023-04-12T11:05:09.130Z,2.80
2023-04-12T11:10:17.639Z,2.47
2023-04-12T11:15:27.401Z,2.20
2023-04-12T11:20:32.258Z,2.40
2023-04-12T11:25:36.750Z,2.28
2023-04-12T11:30:50.691Z,2.40
2023-04-12T11:35:54.381Z,2.40
2023-04-12T11:40:58.037Z,2.10
2023-04-12T11:46:03.630Z,1.90
2023-04-12T11:51:21.108Z,2.23
2023-04-12T11:56:24.969Z,2.25
2023-04-12T12:01:30.756Z,2.25
2023-04-12T12:06:34.755Z,1.95
2023-04-12T12:11:38.622Z,2.28
2023-04-12T12:16:43.894Z,2.20
2023-04-12T12:21:47.499Z,2.25
2023-04-12T12:26:51.365Z,2.38
2023-04-12T12:31:56.765Z,2.30
2023-04-12T12:37:00.862Z,2.23
2023-04-12T12:42:04.572Z,1.90
2023-04-12T12:47:14.103Z,2.05
2023-04-12T12:52:18.368Z,2.03
2023-04-12T12:57:21.981Z,2.20
2023-04-12T13:02:27.438Z,2.35
2023-04-12T13:07:31.188Z,2.03
2023-04-12T13:12:34.878Z,2.00
2023-04-12T13:17:40.207Z,2.08
2023-04-12T13:22:43.857Z,1.75
2023-04-12T13:27:48.562Z,1.75
2023-04-12T13:32:54.913Z,1.67
2023-04-12T13:37:58.683Z,2.10
2023-04-12T13:43:02.430Z,2.13
2023-04-12T13:48:07.820Z,1.77
2023-04-12T13:53:11.551Z,1.80
2023-04-12T13:58:15.223Z,1.77
2023-04-12T14:03:20.658Z,1.80
2023-04-12T14:08:25.014Z,1.63
2023-04-12T14:13:28.766Z,1.48
2023-04-12T14:18:34.181Z,1.58
2023-04-12T14:23:37.898Z,1.57
2023-04-12T14:28:41.533Z,1.75
2023-04-12T14:33:47.326Z,1.50
2023-04-12T14:38:51.173Z,1.58
2023-04-12T14:43:54.807Z,1.10
2023-04-12T14:49:00.222Z,1.80
2023-04-12T14:54:03.974Z,1.33
2023-04-12T14:59:07.612Z,1.77
2023-04-12T15:04:13.161Z,1.58
2023-04-12T15:09:17.030Z,1.98
2023-04-12T15:14:20.844Z,2.00
2023-04-12T15:19:26.320Z,2.20
2023-04-12T15:24:30.088Z,1.77
2023-04-12T15:29:35.023Z,1.58
2023-04-12T15:34:40.346Z,1.67
2023-04-12T15:39:43.978Z,1.50
2023-04-12T15:44:47.616Z,1.10
2023-04-12T15:49:52.869Z,1.13
2023-04-12T15:54:56.458Z,1.10
2023-04-12T16:00:00.152Z,1.15
2023-04-12T16:05:05.888Z,0.88
2023-04-12T16:10:10.469Z,1.20
2023-04-12T16:15:14.102Z,1.20
2023-04-12T16:20:19.645Z,1.40
2023-04-12T16:25:23.662Z,0.90
2023-04-12T16:30:27.370Z,1.20
2023-04-12T16:35:32.736Z,1.13
2023-04-12T16:40:36.369Z,0.93
2023-04-12T16:45:40.057Z,1.00
2023-04-12T16:50:46.549Z,1.10
2023-04-12T16:55:50.185Z,1.38
2023-04-12T17:00:53.808Z,1.20
2023-04-12T17:05:59.101Z,1.13
2023-04-12T17:11:03.126Z,1.33
2023-04-12T17:16:07.544Z,1.55
2023-04-12T17:21:12.865Z,1.13
2023-04-12T17:26:16.820Z,1.27
2023-04-12T17:31:21.042Z,1.52
2023-04-12T17:36:26.429Z,1.88
2023-04-12T17:41:30.108Z,1.30
2023-04-12T17:46:33.943Z,1.63
2023-04-12T17:51:39.261Z,1.17
2023-04-12T17:56:43.456Z,1.20
2023-04-12T18:01:47.342Z,1.58
2023-04-12T18:06:52.673Z,1.63
2023-04-12T18:11:56.376Z,1.60
2023-04-12T18:17:00.073Z,2.42
2023-04-12T18:22:05.525Z,1.98
2023-04-12T18:27:09.231Z,2.08
2023-04-12T18:32:13.657Z,1.88
2023-04-12T18:37:19.033Z,1.73
2023-04-12T18:42:22.770Z,1.98
2023-04-12T18:47:27.377Z,1.80
2023-04-12T18:52:32.873Z,1.70
2023-04-12T18:57:36.520Z,1.67
2023-04-12T19:02:40.254Z,1.70
2023-04-12T19:07:45.666Z,1.48
2023-04-12T19:12:49.355Z,1.48
2023-04-12T19:17:53.087Z,1.73
2023-04-12T19:22:58.356Z,2.15
2023-04-12T19:28:02.044Z,1.40
2023-04-12T19:33:05.892Z,1.50
2023-04-12T19:38:11.346Z,1.90
2023-04-12T19:48:17.876Z,1.80
2023-04-12T19:53:23.270Z,1.70
2023-04-12T19:58:27.006Z,1.35
2023-04-12T20:03:30.688Z,1.90
2023-04-12T20:08:37.089Z,1.90
2023-04-12T20:13:40.832Z,2.22
2023-04-12T20:18:44.642Z,1.85
2023-04-12T20:23:50.084Z,1.80
2023-04-12T20:33:56.678Z,1.90
2023-04-12T20:39:02.077Z,2.10
2023-04-12T20:49:08.558Z,1.92
2023-04-12T20:54:13.812Z,1.88
2023-04-12T20:59:17.457Z,2.33
2023-04-12T21:04:21.215Z,2.55
2023-04-12T21:09:26.596Z,1.80
2023-04-12T21:19:33.564Z,2.42
2023-04-12T21:24:38.988Z,1.70
2023-04-12T21:29:42.729Z,2.00
2023-04-12T21:34:46.485Z,2.42
2023-04-12T21:39:51.867Z,2.05
2023-04-12T21:44:55.555Z,2.40
2023-04-12T21:49:59.274Z,2.22
2023-04-12T21:55:04.992Z,1.88
2023-04-12T22:00:09.630Z,1.95
2023-04-12T22:05:13.319Z,2.50
2023-04-12T22:10:18.757Z,2.20
2023-04-12T22:20:25.275Z,2.35
2023-04-12T22:25:30.586Z,2.42
2023-04-12T22:30:37.193Z,2.30
2023-04-12T22:35:40.822Z,2.33
2023-04-12T22:40:47.426Z,2.00
2023-04-12T22:45:51.280Z,2.50
2023-04-12T22:50:55.034Z,2.38
2023-04-12T22:56:01.194Z,2.00
2023-04-12T23:01:05.134Z,2.65
2023-04-12T23:06:09.255Z,2.55
2023-04-12T23:11:14.563Z,2.50
2023-04-12T23:16:18.247Z,2.38
2023-04-12T23:21:21.969Z,2.45
2023-04-12T23:26:28.156Z,2.55
2023-04-12T23:31:31.900Z,2.30
2023-04-12T23:36:36.505Z,2.65
2023-04-12T23:41:42.922Z,2.10
2023-04-12T23:46:46.576Z,2.83
2023-04-12T23:51:50.348Z,2.63
2023-04-12T23:56:55.720Z,2.40
